createdAt,value
2022-10-24T00:01:44.995Z,99292.31
2022-10-24T00:04:13.509Z,99283.53
2022-10-24T00:06:42.244Z,99277.34
2022-10-24T00:09:10.579Z,99284.41
2022-10-24T00:11:39.238Z,99275.59
2022-10-24T00:14:07.722Z,99273.84
2022-10-24T00:16:37.424Z,99267.66
2022-10-24T00:19:06.201Z,99275.56
2022-10-24T00:21:34.602Z,99265.00
2022-10-24T00:24:02.999Z,99262.34
2022-10-24T00:26:31.339Z,99279.06
2022-10-24T00:31:33.355Z,99282.56
2022-10-24T00:34:03.683Z,99293.13
2022-10-24T00:36:32.594Z,99279.06
2022-10-24T00:39:00.915Z,99276.41
2022-10-24T00:41:31.911Z,99281.69
2022-10-24T00:44:31.432Z,99280.81
2022-10-24T00:47:04.258Z,99270.28
2022-10-24T00:49:41.097Z,99265.00
2022-10-24T00:52:10.579Z,99263.22
2022-10-24T00:54:41.579Z,99263.22
2022-10-24T00:57:16.131Z,99261.44
2022-10-24T00:59:46.277Z,99259.72
2022-10-24T01:04:49.615Z,99254.41
2022-10-24T01:07:30.898Z,99252.66
2022-10-24T01:10:19.858Z,99242.09
2022-10-24T01:13:03.518Z,99250.00
2022-10-24T01:15:39.999Z,99243.84
2022-10-24T01:18:13.992Z,99237.69
2022-10-24T01:21:11.212Z,99245.56
2022-10-24T01:24:16.807Z,99241.19
2022-10-24T01:26:58.094Z,99239.44
2022-10-24T01:29:44.637Z,99229.75
2022-10-24T01:32:18.248Z,99232.38
2022-10-24T01:34:51.674Z,99223.59
2022-10-24T01:37:26.503Z,99218.31
2022-10-24T01:39:58.780Z,99228.84
2022-10-24T01:42:31.173Z,99230.59
2022-10-24T01:45:02.726Z,99228.84
2022-10-24T01:47:36.457Z,99217.41
2022-10-24T01:50:10.942Z,99210.34
2022-10-24T01:52:43.304Z,99213.00
2022-10-24T01:55:12.685Z,99213.00
2022-10-24T01:57:42.491Z,99207.75
2022-10-24T02:00:18.901Z,99199.84
2022-10-24T02:02:51.255Z,99193.69
2022-10-24T02:05:25.141Z,99191.03
2022-10-24T02:07:57.404Z,99184.00
2022-10-24T02:10:30.708Z,99183.09
2022-10-24T02:13:04.168Z,99181.31
2022-10-24T02:15:37.848Z,99180.41
2022-10-24T02:18:07.143Z,99182.19
2022-10-24T02:20:39.784Z,99180.41
2022-10-24T02:23:15.376Z,99180.41
2022-10-24T02:25:49.346Z,99176.03
2022-10-24T02:28:22.090Z,99166.38
2022-10-24T02:30:57.026Z,99174.31
2022-10-24T02:33:27.436Z,99177.81
2022-10-24T02:35:56.937Z,99175.16
2022-10-24T02:38:29.707Z,99179.53
2022-10-24T02:40:59.743Z,99168.13
2022-10-24T02:43:29.820Z,99178.69
2022-10-24T02:45:59.926Z,99175.16
2022-10-24T02:48:31.465Z,99170.75
2022-10-24T02:51:00.907Z,99173.44
2022-10-24T02:53:29.799Z,99173.44
2022-10-24T02:55:58.248Z,99176.06
2022-10-24T02:58:26.619Z,99176.06
2022-10-24T03:00:55.015Z,99161.09
2022-10-24T03:03:24.702Z,99161.09
2022-10-24T03:05:52.985Z,99168.16
2022-10-24T03:08:21.298Z,99173.44
2022-10-24T03:10:49.613Z,99177.84
2022-10-24T03:13:18.004Z,99162.88
2022-10-24T03:18:15.831Z,99174.31
2022-10-24T03:20:46.425Z,99170.81
2022-10-24T03:23:14.847Z,99173.44
2022-10-24T03:25:43.521Z,99176.03
2022-10-24T03:28:11.837Z,99175.16
2022-10-24T03:30:40.272Z,99178.72
2022-10-24T03:33:08.581Z,99184.00
2022-10-24T03:35:37.439Z,99181.34
2022-10-24T03:38:08.156Z,99178.72
2022-10-24T03:40:36.560Z,99178.72
2022-10-24T03:43:05.489Z,99174.31
2022-10-24T03:45:33.835Z,99170.81
2022-10-24T03:48:02.132Z,99173.47
2022-10-24T03:50:30.499Z,99177.00
2022-10-24T03:52:58.818Z,99181.41
2022-10-24T03:55:29.377Z,99187.53
2022-10-24T03:57:57.687Z,99180.53
2022-10-24T04:00:28.277Z,99174.34
2022-10-24T04:02:56.667Z,99179.63
2022-10-24T04:05:25.015Z,99178.75
2022-10-24T04:07:53.403Z,99183.16
2022-10-24T04:10:21.750Z,99180.53
2022-10-24T04:12:51.561Z,99187.59
2022-10-24T04:15:19.980Z,99184.06
2022-10-24T04:17:48.447Z,99180.56
2022-10-24T04:20:19.619Z,99186.75
2022-10-24T04:22:48.273Z,99188.50
2022-10-24T04:25:16.771Z,99178.88
2022-10-24T04:27:45.528Z,99181.47
2022-10-24T04:30:16.875Z,99177.09
2022-10-24T04:32:46.041Z,99182.38
2022-10-24T04:35:14.894Z,99178.88
2022-10-24T04:37:43.270Z,99171.88
2022-10-24T04:40:12.241Z,99192.09
2022-10-24T04:42:40.602Z,99179.78
2022-10-24T04:45:10.467Z,99187.72
2022-10-24T04:47:40.138Z,99183.31
2022-10-24T04:50:09.443Z,99182.50
2022-10-24T04:52:37.811Z,99186.88
2022-10-24T04:55:06.927Z,99199.19
2022-10-24T04:57:35.252Z,99193.91
2022-10-24T05:00:04.562Z,99194.81
2022-10-24T05:02:32.953Z,99186.91
2022-10-24T05:05:02.731Z,99192.13
2022-10-24T05:07:31.081Z,99198.31
2022-10-24T05:09:59.415Z,99195.69
2022-10-24T05:12:27.806Z,99196.56
2022-10-24T05:14:56.120Z,99200.97
2022-10-24T05:17:24.614Z,99195.69
2022-10-24T05:19:52.949Z,99204.50
2022-10-24T05:22:22.645Z,99203.63
2022-10-24T05:24:51.267Z,99201.88
2022-10-24T05:27:24.550Z,99208.94
2022-10-24T05:29:52.954Z,99208.94
2022-10-24T05:32:22.594Z,99210.72
2022-10-24T05:34:50.975Z,99210.75
2022-10-24T05:37:19.457Z,99205.47
2022-10-24T05:39:49.273Z,99207.25
2022-10-24T05:42:18.193Z,99205.47
2022-10-24T05:44:46.527Z,99201.97
2022-10-24T05:47:14.989Z,99204.63
2022-10-24T05:49:43.378Z,99214.31
2022-10-24T05:52:11.694Z,99219.59
2022-10-24T05:54:55.333Z,99222.22
2022-10-24T05:57:30.014Z,99226.63
2022-10-24T05:59:58.411Z,99226.63
2022-10-24T06:02:26.913Z,99218.72
2022-10-24T06:04:56.997Z,99228.41
2022-10-24T06:07:25.688Z,99238.94
2022-10-24T06:09:54.090Z,99230.13
2022-10-24T06:12:22.436Z,99231.91
2022-10-24T06:14:52.188Z,99238.91
2022-10-24T06:17:20.497Z,99231.00
2022-10-24T06:22:24.030Z,99241.59
2022-10-24T06:24:52.621Z,99244.22
2022-10-24T06:27:21.040Z,99239.84
2022-10-24T06:29:49.389Z,99242.47
2022-10-24T06:32:19.773Z,99246.84
2022-10-24T06:34:48.093Z,99238.06
2022-10-24T06:37:16.498Z,99245.13
2022-10-24T06:39:44.844Z,99248.66
2022-10-24T06:42:13.151Z,99253.03
2022-10-24T06:44:42.762Z,99246.91
2022-10-24T06:47:11.166Z,99253.06
2022-10-24T06:49:40.943Z,99260.94
2022-10-24T06:52:09.286Z,99256.56
2022-10-24T06:54:39.071Z,99256.56
2022-10-24T06:57:07.487Z,99257.44
2022-10-24T06:59:35.845Z,99263.56
2022-10-24T07:02:05.999Z,99267.94
2022-10-24T07:04:34.674Z,99265.28
2022-10-24T07:07:04.365Z,99272.31
2022-10-24T07:09:32.726Z,99267.91
2022-10-24T07:12:01.030Z,99276.69
2022-10-24T07:14:29.403Z,99274.88
2022-10-24T07:16:58.336Z,99268.72
2022-10-24T07:19:26.624Z,99282.78
2022-10-24T07:21:54.934Z,99275.72
2022-10-24T07:24:24.566Z,99283.63
2022-10-24T07:26:52.850Z,99295.06
2022-10-24T07:29:21.120Z,99295.03
2022-10-24T07:31:49.525Z,99302.97
2022-10-24T07:34:18.480Z,99295.00
2022-10-24T07:36:46.791Z,99291.50
2022-10-24T07:39:15.104Z,99295.00
2022-10-24T07:41:44.723Z,99305.53
2022-10-24T07:44:13.069Z,99295.84
2022-10-24T07:46:42.618Z,99304.66
2022-10-24T07:49:11.236Z,99310.78
2022-10-24T07:51:39.606Z,99305.47
2022-10-24T07:54:08.011Z,99301.94
2022-10-24T07:56:36.383Z,99307.22
2022-10-24T07:59:09.649Z,99304.59
2022-10-24T08:01:42.275Z,99309.84
2022-10-24T08:04:11.065Z,99305.41
2022-10-24T08:06:40.640Z,99301.00
2022-10-24T08:09:09.261Z,99308.00
2022-10-24T08:11:37.571Z,99313.25
2022-10-24T08:14:07.255Z,99310.56
2022-10-24T08:16:35.597Z,99312.31
2022-10-24T08:19:04.019Z,99315.78
2022-10-24T08:21:33.453Z,99313.13
2022-10-24T08:24:01.823Z,99328.03
2022-10-24T08:26:30.131Z,99313.94
2022-10-24T08:28:58.416Z,99319.19
2022-10-24T08:31:28.059Z,99313.00
2022-10-24T08:33:57.212Z,99315.59
2022-10-24T08:36:28.768Z,99319.97
2022-10-24T08:38:57.698Z,99317.34
2022-10-24T08:41:31.643Z,99318.25
2022-10-24T08:44:03.423Z,99320.84
2022-10-24T08:46:50.271Z,99331.38
2022-10-24T08:49:29.252Z,99321.72
2022-10-24T08:52:01.511Z,99346.31
2022-10-24T08:54:36.821Z,99319.91
2022-10-24T08:57:07.103Z,99323.41
2022-10-24T08:59:37.433Z,99326.03
2022-10-24T09:02:18.193Z,99334.84
2022-10-24T09:04:52.685Z,99334.84
2022-10-24T09:09:53.258Z,99337.47
2022-10-24T09:12:22.442Z,99333.97
2022-10-24T09:14:56.037Z,99345.41
2022-10-24T09:17:31.200Z,99345.38
2022-10-24T09:20:01.429Z,99349.75
2022-10-24T09:22:34.535Z,99348.84
2022-10-24T09:25:05.814Z,99351.44
2022-10-24T09:27:37.995Z,99335.53
2022-10-24T09:30:08.434Z,99339.88
2022-10-24T09:32:38.157Z,99345.19
2022-10-24T09:35:09.006Z,99346.88
2022-10-24T09:37:44.382Z,99360.16
2022-10-24T09:40:22.630Z,99350.44
2022-10-24T09:42:59.628Z,99353.97
2022-10-24T09:45:40.550Z,99362.78
2022-10-24T09:48:26.016Z,99382.19
2022-10-24T09:50:58.478Z,99364.56
2022-10-24T09:53:30.320Z,99373.31
2022-10-24T09:56:00.578Z,99386.50
2022-10-24T09:58:32.735Z,99384.75
2022-10-24T10:01:05.129Z,99375.91
2022-10-24T10:03:35.795Z,99383.81
2022-10-24T10:06:15.438Z,99389.06
2022-10-24T10:08:50.974Z,99387.25
2022-10-24T10:11:27.445Z,99384.56
2022-10-24T10:13:55.980Z,99388.97
2022-10-24T10:16:26.837Z,99388.03
2022-10-24T10:19:05.305Z,99396.81
2022-10-24T10:21:56.229Z,99391.47
2022-10-24T10:24:27.815Z,99402.06
2022-10-24T10:26:56.104Z,99407.31
2022-10-24T10:29:25.339Z,99399.38
2022-10-24T10:32:01.069Z,99395.00
2022-10-24T10:34:39.069Z,99410.84
2022-10-24T10:37:28.144Z,99405.53
2022-10-24T10:40:21.543Z,99409.09
2022-10-24T10:43:05.486Z,99417.03
2022-10-24T10:45:37.296Z,99410.00
2022-10-24T10:48:32.802Z,99401.19
2022-10-24T10:51:09.482Z,99412.63
2022-10-24T10:53:43.459Z,99415.28
2022-10-24T10:56:23.359Z,99425.91
2022-10-24T10:59:03.452Z,99433.84
2022-10-24T11:01:48.172Z,99438.22
2022-10-24T11:04:20.532Z,99432.94
2022-10-24T11:06:57.878Z,99436.44
2022-10-24T11:09:30.722Z,99435.56
2022-10-24T11:12:08.581Z,99438.19
2022-10-24T11:14:40.091Z,99439.94
2022-10-24T11:17:15.985Z,99443.47
2022-10-24T11:19:55.937Z,99441.72
2022-10-24T11:22:29.337Z,99443.50
2022-10-24T11:25:02.583Z,99451.41
2022-10-24T11:27:39.806Z,99456.72
2022-10-24T11:30:16.114Z,99450.53
2022-10-24T11:32:51.712Z,99451.41
2022-10-24T11:35:28.721Z,99457.56
2022-10-24T11:38:03.640Z,99455.81
2022-10-24T11:40:32.082Z,99457.56
2022-10-24T11:43:12.568Z,99456.69
2022-10-24T11:45:46.889Z,99454.00
2022-10-24T11:48:20.312Z,99451.41
2022-10-24T11:50:53.979Z,99453.19
2022-10-24T11:53:45.806Z,99459.34
2022-10-24T11:56:23.653Z,99457.56
2022-10-24T11:58:59.675Z,99459.34
2022-10-24T12:01:48.274Z,99463.75
2022-10-24T12:04:41.693Z,99471.69
2022-10-24T12:07:48.708Z,99470.88
2022-10-24T12:10:40.616Z,99466.44
2022-10-24T12:13:32.852Z,99469.97
2022-10-24T12:16:08.734Z,99469.09
2022-10-24T12:18:40.729Z,99462.03
2022-10-24T12:21:12.654Z,99465.53
2022-10-24T12:23:42.148Z,99455.81
2022-10-24T12:26:20.162Z,99471.69
2022-10-24T12:28:55.888Z,99469.06
2022-10-24T12:31:29.213Z,99469.91
2022-10-24T12:34:34.352Z,99468.16
2022-10-24T12:37:08.175Z,99473.41
2022-10-24T12:39:41.446Z,99471.56
2022-10-24T12:42:17.533Z,99465.41
2022-10-24T12:44:47.944Z,99474.19
2022-10-24T12:47:37.494Z,99473.22
2022-10-24T12:50:57.231Z,99465.19
2022-10-24T12:54:03.116Z,99466.97
2022-10-24T12:56:32.879Z,99463.38
2022-10-24T12:59:05.449Z,99460.66
2022-10-24T13:01:37.601Z,99467.69
2022-10-24T13:04:36.929Z,99462.34
2022-10-24T13:07:37.590Z,99463.22
2022-10-24T13:10:25.810Z,99454.38
2022-10-24T13:15:52.728Z,99450.78
2022-10-24T13:18:45.218Z,99448.09
2022-10-24T13:21:24.280Z,99437.50
2022-10-24T13:23:53.067Z,99441.81
2022-10-24T13:26:38.388Z,99432.94
2022-10-24T13:29:14.129Z,99432.03
2022-10-24T13:31:49.341Z,99438.13
2022-10-24T13:34:26.524Z,99435.47
2022-10-24T13:37:02.390Z,99431.88
2022-10-24T13:39:38.747Z,99433.69
2022-10-24T13:42:24.871Z,99440.69
2022-10-24T13:44:58.615Z,99438.84
2022-10-24T13:47:32.581Z,99436.91
2022-10-24T13:50:04.866Z,99443.78
2022-10-24T13:52:39.510Z,99440.88
2022-10-24T13:55:23.149Z,99449.47
2022-10-24T13:57:57.317Z,99445.84
2022-10-24T14:00:28.519Z,99449.28
2022-10-24T14:03:00.830Z,99454.66
2022-10-24T14:05:35.928Z,99445.09
2022-10-24T14:08:06.487Z,99446.94
2022-10-24T14:10:35.227Z,99444.31
2022-10-24T14:13:05.064Z,99445.13
2022-10-24T14:15:34.278Z,99440.63
2022-10-24T14:18:14.193Z,99450.16
2022-10-24T14:20:43.426Z,99451.91
2022-10-24T14:23:25.404Z,99448.38
2022-10-24T14:25:57.478Z,99459.78
2022-10-24T14:28:28.261Z,99448.19
2022-10-24T14:30:59.144Z,99464.94
2022-10-24T14:33:30.353Z,99462.44
2022-10-24T14:36:01.215Z,99470.47
2022-10-24T14:38:29.919Z,99479.34
2022-10-24T14:41:09.171Z,99467.09
2022-10-24T14:43:41.894Z,99473.34
2022-10-24T14:46:35.350Z,99471.56
2022-10-24T14:49:21.689Z,99490.06
2022-10-24T14:54:23.998Z,99489.19
2022-10-24T14:56:54.323Z,99483.91
2022-10-24T14:59:26.907Z,99488.44
2022-10-24T15:01:56.725Z,99477.84
2022-10-24T15:04:33.113Z,99488.47
2022-10-24T15:07:14.123Z,99482.34
2022-10-24T15:09:53.023Z,99485.94
2022-10-24T15:12:28.060Z,99485.13
2022-10-24T15:14:59.907Z,99482.53
2022-10-24T15:17:32.724Z,99486.09
2022-10-24T15:20:04.879Z,99479.06
2022-10-24T15:22:37.441Z,99480.00
2022-10-24T15:25:10.117Z,99496.88
2022-10-24T15:27:41.359Z,99483.75
2022-10-24T15:30:15.174Z,99480.28
2022-10-24T15:32:43.904Z,99483.81
2022-10-24T15:35:14.421Z,99496.19
2022-10-24T15:37:53.110Z,99496.22
2022-10-24T15:40:24.108Z,99492.78
2022-10-24T15:42:52.440Z,99499.03
2022-10-24T15:45:21.392Z,99492.91
2022-10-24T15:47:50.901Z,99492.94
2022-10-24T15:52:57.841Z,99497.47
2022-10-24T15:55:28.439Z,99509.84
2022-10-24T15:57:59.727Z,99502.00
2022-10-24T16:00:28.138Z,99501.19
2022-10-24T16:03:00.705Z,99508.25
2022-10-24T16:05:33.130Z,99517.97
2022-10-24T16:08:01.558Z,99521.59
2022-10-24T16:10:29.948Z,99534.91
2022-10-24T16:12:58.254Z,99549.94
2022-10-24T16:15:29.643Z,99542.97
2022-10-24T16:17:57.983Z,99548.38
2022-10-24T16:20:26.572Z,99549.31
2022-10-24T16:22:56.271Z,99544.97
2022-10-24T16:25:26.956Z,99545.88
2022-10-24T16:27:55.512Z,99552.97
2022-10-24T16:30:26.032Z,99554.75
2022-10-24T16:32:54.457Z,99551.28
2022-10-24T16:35:25.653Z,99555.72
2022-10-24T16:37:57.104Z,99554.88
2022-10-24T16:40:27.626Z,99551.38
2022-10-24T16:42:57.820Z,99549.63
2022-10-24T16:45:26.441Z,99562.00
2022-10-24T16:47:54.774Z,99558.47
2022-10-24T16:50:26.142Z,99560.25
2022-10-24T16:52:57.582Z,99553.22
2022-10-24T16:55:26.347Z,99556.75
2022-10-24T16:57:54.755Z,99557.66
2022-10-24T17:00:24.111Z,99562.06
2022-10-24T17:02:55.148Z,99562.06
2022-10-24T17:05:26.913Z,99563.88
2022-10-24T17:07:57.168Z,99565.63
2022-10-24T17:10:25.637Z,99579.72
2022-10-24T17:12:54.351Z,99579.75
2022-10-24T17:15:22.961Z,99574.44
2022-10-24T17:17:51.630Z,99576.22
2022-10-24T17:20:20.010Z,99570.97
2022-10-24T17:22:49.253Z,99571.84
2022-10-24T17:25:23.422Z,99581.56
2022-10-24T17:27:52.705Z,99617.66
2022-10-24T17:30:23.481Z,99622.94
2022-10-24T17:32:52.009Z,99602.75
2022-10-24T17:35:22.883Z,99585.19
2022-10-24T17:38:02.307Z,99587.91
2022-10-24T17:40:40.953Z,99600.25
2022-10-24T17:43:18.033Z,99643.34
2022-10-24T17:45:47.344Z,99629.28
2022-10-24T17:48:16.336Z,99625.78
2022-10-24T17:50:45.886Z,99618.72
2022-10-24T17:53:15.038Z,99618.72
2022-10-24T17:55:46.791Z,99626.59
2022-10-24T17:58:16.522Z,99624.88
2022-10-24T18:00:45.949Z,99631.00
2022-10-24T18:03:15.124Z,99634.47
2022-10-24T18:05:43.549Z,99640.59
2022-10-24T18:08:12.968Z,99634.41
2022-10-24T18:10:42.230Z,99632.63
2022-10-24T18:13:12.120Z,99634.38
2022-10-24T18:15:40.467Z,99629.09
2022-10-24T18:18:08.827Z,99632.56
2022-10-24T18:20:37.230Z,99629.03
2022-10-24T18:23:05.634Z,99624.63
2022-10-24T18:25:33.995Z,99634.25
2022-10-24T18:28:02.331Z,99651.81
2022-10-24T18:30:32.190Z,99658.81
2022-10-24T18:33:00.598Z,99664.06
2022-10-24T18:35:33.019Z,99662.31
2022-10-24T18:38:02.062Z,99669.31
2022-10-24T18:40:33.356Z,99665.81
2022-10-24T18:43:05.224Z,99654.38
2022-10-24T18:45:36.169Z,99644.72
2022-10-24T18:48:05.307Z,99642.94
2022-10-24T18:50:33.955Z,99648.19
2022-10-24T18:53:05.725Z,99642.91
2022-10-24T18:55:36.351Z,99645.56
2022-10-24T18:58:05.228Z,99648.16
2022-10-24T19:00:38.112Z,99654.31
2022-10-24T19:03:18.225Z,99650.78
2022-10-24T19:05:52.020Z,99651.63
2022-10-24T19:08:25.531Z,99654.25
2022-10-24T19:10:56.300Z,99657.78
2022-10-24T19:13:26.386Z,99652.50
2022-10-24T19:15:58.660Z,99653.41
2022-10-24T19:18:29.599Z,99649.88
2022-10-24T19:20:57.934Z,99653.41
2022-10-24T19:23:26.439Z,99645.50
2022-10-24T19:25:54.911Z,99648.13
2022-10-24T19:28:23.358Z,99641.97
2022-10-24T19:30:51.780Z,99653.41
2022-10-24T19:33:24.944Z,99635.84
2022-10-24T19:35:53.343Z,99639.34
2022-10-24T19:38:21.873Z,99635.84
2022-10-24T19:40:52.625Z,99644.63
2022-10-24T19:43:21.676Z,99644.63
2022-10-24T19:46:07.210Z,99644.63
2022-10-24T19:48:37.888Z,99647.25
2022-10-24T19:51:07.839Z,99650.75
2022-10-24T19:53:37.094Z,99646.38
2022-10-24T19:56:06.822Z,99643.75
2022-10-24T19:58:35.179Z,99642.88
2022-10-24T20:01:07.556Z,99656.91
2022-10-24T20:03:38.530Z,99649.91
2022-10-24T20:06:07.494Z,99651.69
2022-10-24T20:08:36.395Z,99644.66
2022-10-24T20:11:06.043Z,99664.84
2022-10-24T20:13:35.059Z,99660.47
2022-10-24T20:16:05.870Z,99674.53
2022-10-24T20:18:35.605Z,99677.16
2022-10-24T20:21:07.321Z,99688.59
2022-10-24T20:23:36.362Z,99703.53
2022-10-24T20:26:07.216Z,99702.66
2022-10-24T20:28:36.608Z,99697.41
2022-10-24T20:31:05.496Z,99712.31
2022-10-24T20:33:33.802Z,99707.06
2022-10-24T20:36:02.769Z,99707.94
2022-10-24T20:38:33.908Z,99717.63
2022-10-24T20:41:02.857Z,99727.25
2022-10-24T20:43:32.579Z,99731.66
2022-10-24T20:46:04.871Z,99724.59
2022-10-24T20:48:33.745Z,99731.66
2022-10-24T20:51:06.767Z,99729.00
2022-10-24T20:53:36.480Z,99732.50
2022-10-24T20:56:06.402Z,99729.88
2022-10-24T20:58:34.835Z,99744.78
2022-10-24T21:01:07.538Z,99765.84
2022-10-24T21:03:36.973Z,99762.31
2022-10-24T21:06:06.925Z,99762.31
2022-10-24T21:08:36.582Z,99757.94
2022-10-24T21:11:07.082Z,99760.56
2022-10-24T21:13:35.470Z,99760.56
2022-10-24T21:16:04.048Z,99759.66
2022-10-24T21:18:32.694Z,99767.56
2022-10-24T21:21:07.066Z,99762.31
2022-10-24T21:23:37.000Z,99765.81
2022-10-24T21:26:06.797Z,99768.44
2022-10-24T21:28:35.782Z,99769.31
2022-10-24T21:31:05.831Z,99766.69
2022-10-24T21:33:34.556Z,99759.63
2022-10-24T21:36:06.251Z,99767.53
2022-10-24T21:38:36.358Z,99769.28
2022-10-24T21:41:06.677Z,99763.16
2022-10-24T21:43:36.630Z,99763.13
2022-10-24T21:46:07.408Z,99760.50
2022-10-24T21:48:36.416Z,99767.50
2022-10-24T21:51:07.398Z,99773.66
2022-10-24T21:53:41.577Z,99772.75
2022-10-24T21:56:12.138Z,99776.25
2022-10-24T21:58:41.131Z,99775.38
2022-10-24T22:01:14.273Z,99778.00
2022-10-24T22:03:43.089Z,99771.00
2022-10-24T22:06:14.442Z,99774.47
2022-10-24T22:08:45.166Z,99770.94
2022-10-24T22:11:15.438Z,99779.72
2022-10-24T22:13:44.104Z,99784.97
2022-10-24T22:16:14.227Z,99784.06
2022-10-24T22:18:42.816Z,99791.97
2022-10-24T22:21:21.648Z,99790.22
2022-10-24T22:24:17.055Z,99797.25
2022-10-24T22:26:46.109Z,99793.69
2022-10-24T22:29:16.667Z,99790.19
2022-10-24T22:31:46.082Z,99793.72
2022-10-24T22:34:18.076Z,99790.19
2022-10-24T22:36:56.152Z,99801.56
2022-10-24T22:39:27.005Z,99798.94
2022-10-24T22:41:55.997Z,99804.19
2022-10-24T22:44:24.798Z,99804.19
2022-10-24T22:47:28.141Z,99806.84
2022-10-24T22:50:03.827Z,99798.94
2022-10-24T22:52:32.561Z,99806.84
2022-10-24T22:55:03.998Z,99814.72
2022-10-24T23:00:08.092Z,99821.75
2022-10-24T23:02:41.598Z,99827.88
2022-10-24T23:05:16.824Z,99826.13
2022-10-24T23:07:50.907Z,99826.97
2022-10-24T23:10:22.917Z,99835.78
2022-10-24T23:12:52.214Z,99836.66
2022-10-24T23:15:22.592Z,99835.78
2022-10-24T23:17:51.619Z,99842.81
2022-10-24T23:20:28.290Z,99845.44
2022-10-24T23:23:09.205Z,99840.22
2022-10-24T23:26:09.094Z,99850.72
2022-10-24T23:28:46.214Z,99856.00
2022-10-24T23:31:15.014Z,99858.66
2022-10-24T23:33:43.808Z,99858.66
2022-10-24T23:36:19.326Z,99858.66
2022-10-24T23:38:48.356Z,99857.78
2022-10-24T23:41:18.754Z,99860.38
2022-10-24T23:43:47.564Z,99859.50
2022-10-24T23:46:25.265Z,99862.09
2022-10-24T23:49:07.749Z,99866.50
2022-10-24T23:51:41.871Z,99869.13
2022-10-24T23:54:12.516Z,99865.59
2022-10-24T23:56:42.694Z,99876.13
2022-10-24T23:59:11.005Z,99869.06
